createdAt,value
2019-01-11T00:01:26.188Z,4.20
2019-01-11T00:03:53.370Z,3.10
2019-01-11T00:06:20.551Z,3.00
2019-01-11T00:08:48.157Z,2.97
2019-01-11T00:11:15.351Z,3.07
2019-01-11T00:13:42.527Z,3.57
2019-01-11T00:16:09.702Z,3.00
2019-01-11T00:18:36.882Z,3.40
2019-01-11T00:21:04.070Z,3.10
2019-01-11T00:23:31.267Z,3.60
2019-01-11T00:25:58.432Z,3.57
2019-01-11T00:28:25.627Z,4.27
2019-01-11T00:30:52.807Z,3.30
2019-01-11T00:33:19.988Z,4.17
2019-01-11T00:35:47.147Z,3.63
2019-01-11T00:38:14.318Z,4.10
2019-01-11T00:40:41.519Z,5.60
2019-01-11T00:43:15.113Z,4.23
2019-01-11T00:45:40.834Z,3.63
2019-01-11T00:48:08.790Z,3.73
2019-01-11T00:50:35.969Z,3.93
2019-01-11T00:53:03.126Z,3.97
2019-01-11T00:55:30.322Z,3.57
2019-01-11T00:57:57.506Z,4.97
2019-01-11T01:00:24.681Z,3.80
2019-01-11T01:02:51.898Z,3.97
2019-01-11T01:05:19.114Z,4.50
2019-01-11T01:07:48.087Z,4.83
2019-01-11T01:10:16.862Z,4.40
2019-01-11T01:12:44.062Z,4.60
2019-01-11T01:15:12.503Z,5.00
2019-01-11T01:17:39.685Z,4.40
2019-01-11T01:20:13.810Z,5.03
2019-01-11T01:22:42.631Z,4.47
2019-01-11T01:25:10.496Z,4.43
2019-01-11T01:27:37.664Z,4.80
2019-01-11T01:30:06.513Z,4.63
2019-01-11T01:32:33.696Z,5.37
2019-01-11T01:35:00.881Z,5.00
2019-01-11T01:37:28.042Z,4.70
2019-01-11T01:39:55.285Z,5.60
2019-01-11T01:42:22.558Z,4.93
2019-01-11T01:44:49.750Z,6.87
2019-01-11T01:47:16.936Z,7.40
2019-01-11T01:49:44.106Z,5.83
2019-01-11T01:52:11.290Z,6.13
2019-01-11T01:54:38.471Z,6.07
2019-01-11T01:57:05.665Z,6.43
2019-01-11T01:59:32.836Z,6.27
2019-01-11T02:02:00.024Z,6.47
2019-01-11T02:04:27.221Z,6.83
2019-01-11T02:06:54.722Z,7.87
2019-01-11T02:09:21.909Z,6.70
2019-01-11T02:11:49.093Z,7.60
2019-01-11T02:14:16.278Z,6.17
2019-01-11T02:16:43.449Z,7.07
2019-01-11T02:19:10.626Z,6.30
2019-01-11T02:21:37.811Z,8.30
2019-01-11T02:24:04.998Z,7.17
2019-01-11T02:26:32.167Z,6.30
2019-01-11T02:28:59.378Z,7.43
2019-01-11T02:31:26.602Z,7.00
2019-01-11T02:33:53.770Z,8.20
2019-01-11T02:36:20.954Z,8.00
2019-01-11T02:38:48.122Z,8.17
2019-01-11T02:41:15.319Z,8.73
2019-01-11T02:43:42.503Z,8.23
2019-01-11T02:46:09.680Z,9.00
2019-01-11T02:48:36.879Z,9.33
2019-01-11T02:51:04.044Z,9.20
2019-01-11T02:53:31.248Z,9.07
2019-01-11T02:55:58.422Z,10.00
2019-01-11T02:58:25.622Z,9.27
2019-01-11T03:00:52.778Z,9.10
2019-01-11T03:03:19.979Z,10.03
2019-01-11T03:05:47.222Z,12.23
2019-01-11T03:08:14.423Z,10.00
2019-01-11T03:10:44.781Z,11.73
2019-01-11T03:13:12.038Z,11.73
2019-01-11T03:15:39.430Z,10.97
2019-01-11T03:18:06.655Z,12.10
2019-01-11T03:20:33.839Z,10.90
2019-01-11T03:23:01.109Z,12.47
2019-01-11T03:25:28.278Z,12.27
2019-01-11T03:27:55.474Z,12.27
2019-01-11T03:30:22.653Z,12.97
2019-01-11T03:32:49.842Z,13.90
2019-01-11T03:35:18.296Z,13.97
2019-01-11T03:37:46.449Z,13.63
2019-01-11T03:40:15.251Z,14.77
2019-01-11T03:42:42.422Z,14.47
2019-01-11T03:45:11.279Z,13.30
2019-01-11T03:47:38.457Z,13.80
2019-01-11T03:50:07.028Z,13.27
2019-01-11T03:52:34.222Z,12.93
2019-01-11T03:55:01.476Z,13.30
2019-01-11T03:57:28.663Z,14.13
2019-01-11T03:59:55.835Z,12.10
2019-01-11T04:02:23.021Z,13.50
2019-01-11T04:04:50.213Z,13.80
2019-01-11T04:07:17.407Z,15.17
2019-01-11T04:09:44.666Z,14.43
2019-01-11T04:12:11.838Z,16.20
2019-01-11T04:14:39.077Z,15.73
2019-01-11T04:17:06.322Z,14.43
2019-01-11T04:19:33.522Z,12.57
2019-01-11T04:22:05.157Z,13.33
2019-01-11T04:24:34.003Z,14.53
2019-01-11T04:27:01.189Z,14.00
2019-01-11T04:29:28.363Z,13.57
2019-01-11T04:31:55.550Z,13.07
2019-01-11T04:34:22.739Z,13.47
2019-01-11T04:36:49.910Z,14.90
2019-01-11T04:39:17.170Z,15.37
2019-01-11T04:41:44.342Z,14.70
2019-01-11T04:44:11.532Z,13.17
2019-01-11T04:46:38.706Z,14.83
2019-01-11T04:49:07.545Z,13.77
2019-01-11T04:51:34.728Z,14.33
2019-01-11T04:54:01.944Z,14.73
2019-01-11T04:56:29.182Z,14.30
2019-01-11T04:58:56.385Z,15.20
2019-01-11T05:01:23.611Z,14.63
2019-01-11T05:03:51.646Z,15.37
2019-01-11T05:06:18.815Z,14.93
2019-01-11T05:08:47.411Z,14.73
2019-01-11T05:11:14.757Z,13.43
2019-01-11T05:13:42.775Z,13.70
2019-01-11T05:16:10.092Z,14.20
2019-01-11T05:18:37.384Z,13.20
2019-01-11T05:21:04.551Z,14.17
2019-01-11T05:23:31.760Z,13.47
2019-01-11T05:25:58.963Z,14.43
2019-01-11T05:28:26.220Z,13.80
2019-01-11T05:30:53.448Z,13.50
2019-01-11T05:33:20.688Z,13.33
2019-01-11T05:35:47.881Z,13.83
2019-01-11T05:38:15.092Z,12.63
2019-01-11T05:40:42.296Z,14.83
2019-01-11T05:43:09.495Z,13.73
2019-01-11T05:45:36.689Z,13.07
2019-01-11T05:48:03.889Z,13.10
2019-01-11T05:50:31.273Z,13.47
2019-01-11T05:52:58.592Z,12.53
2019-01-11T05:55:45.458Z,13.57
2019-01-11T05:58:23.211Z,13.20
2019-01-11T06:00:50.408Z,13.83
2019-01-11T06:03:17.611Z,14.93
2019-01-11T06:05:44.945Z,13.30
2019-01-11T06:08:13.851Z,14.23
2019-01-11T06:10:41.037Z,13.00
2019-01-11T06:13:08.240Z,13.30
2019-01-11T06:15:35.432Z,12.47
2019-01-11T06:18:02.633Z,13.23
2019-01-11T06:20:30.386Z,13.70
2019-01-11T06:22:57.828Z,13.53
2019-01-11T06:25:25.039Z,13.97
2019-01-11T06:27:52.268Z,13.07
2019-01-11T06:30:19.458Z,13.90
2019-01-11T06:32:46.664Z,14.67
2019-01-11T06:35:13.919Z,13.37
2019-01-11T06:37:41.097Z,14.93
2019-01-11T06:40:09.554Z,12.93
2019-01-11T06:42:36.739Z,14.43
2019-01-11T06:45:05.297Z,12.67
2019-01-11T06:47:32.491Z,13.33
2019-01-11T06:49:59.658Z,14.30
2019-01-11T06:52:26.852Z,15.17
2019-01-11T06:54:54.035Z,12.20
2019-01-11T06:57:21.226Z,12.13
2019-01-11T06:59:48.477Z,14.50
2019-01-11T07:02:15.693Z,13.57
2019-01-11T07:04:42.863Z,12.33
2019-01-11T07:07:10.053Z,13.50
2019-01-11T07:09:37.257Z,13.83
2019-01-11T07:12:04.455Z,13.00
2019-01-11T07:14:31.641Z,13.10
2019-01-11T07:16:58.810Z,12.57
2019-01-11T07:19:26.011Z,11.63
2019-01-11T07:21:53.194Z,11.70
2019-01-11T07:24:20.386Z,10.17
2019-01-11T07:26:47.586Z,12.33
2019-01-11T07:29:14.778Z,10.67
2019-01-11T07:31:43.607Z,10.33
2019-01-11T07:34:11.231Z,10.60
2019-01-11T07:36:40.195Z,11.40
2019-01-11T07:39:10.136Z,12.53
2019-01-11T07:41:37.341Z,10.93
2019-01-11T07:44:04.531Z,10.40
2019-01-11T07:46:31.712Z,10.03
2019-01-11T07:48:58.887Z,10.20
2019-01-11T07:51:26.094Z,9.50
2019-01-11T07:53:53.257Z,9.27
2019-01-11T07:56:20.444Z,9.13
2019-01-11T07:58:47.635Z,9.17
2019-01-11T08:01:14.872Z,7.97
2019-01-11T08:03:42.068Z,7.73
2019-01-11T08:06:09.245Z,8.03
2019-01-11T08:08:36.416Z,7.27
2019-01-11T08:11:03.872Z,7.90
2019-01-11T08:13:31.148Z,7.70
2019-01-11T08:15:58.415Z,8.70
2019-01-11T08:18:26.029Z,7.53
2019-01-11T08:20:56.285Z,7.57
2019-01-11T08:23:22.156Z,6.70
2019-01-11T08:25:49.389Z,7.30
2019-01-11T08:28:16.660Z,8.00
2019-01-11T08:30:43.836Z,6.90
2019-01-11T08:33:11.035Z,6.83
2019-01-11T08:35:38.234Z,6.60
2019-01-11T08:38:05.431Z,7.40
2019-01-11T08:40:32.601Z,7.03
2019-01-11T08:42:59.799Z,7.43
2019-01-11T08:45:26.959Z,6.90
2019-01-11T08:47:54.139Z,6.20
2019-01-11T08:50:21.515Z,6.90
2019-01-11T08:52:49.078Z,7.77
2019-01-11T08:55:16.468Z,6.60
2019-01-11T08:57:43.728Z,6.73
2019-01-11T09:00:12.616Z,6.97
2019-01-11T09:02:39.785Z,6.40
2019-01-11T09:05:07.833Z,6.70
2019-01-11T09:07:35.016Z,6.30
2019-01-11T09:10:02.209Z,5.77
2019-01-11T09:12:29.394Z,6.47
2019-01-11T09:14:56.948Z,5.63
2019-01-11T09:17:24.131Z,6.00
2019-01-11T09:19:51.310Z,7.10
2019-01-11T09:22:18.493Z,6.63
2019-01-11T09:24:56.305Z,6.83
2019-01-11T09:27:23.522Z,6.40
2019-01-11T09:29:50.692Z,6.43
2019-01-11T09:32:17.862Z,6.57
2019-01-11T09:34:45.134Z,5.77
2019-01-11T09:37:12.325Z,6.37
2019-01-11T09:39:39.488Z,8.50
2019-01-11T09:42:07.157Z,6.47
2019-01-11T09:44:34.328Z,5.93
2019-01-11T09:47:03.130Z,6.27
2019-01-11T09:49:32.818Z,6.63
2019-01-11T09:52:00.520Z,6.27
2019-01-11T09:54:31.906Z,6.50
2019-01-11T09:57:05.055Z,7.10
2019-01-11T09:59:35.175Z,6.87
2019-01-11T10:02:07.874Z,6.47
2019-01-11T10:04:35.438Z,7.77
2019-01-11T10:07:07.249Z,7.80
2019-01-11T10:09:34.504Z,7.37
2019-01-11T10:12:03.329Z,7.23
2019-01-11T10:14:32.495Z,7.50
2019-01-11T10:16:59.733Z,9.03
2019-01-11T10:19:26.948Z,8.50
2019-01-11T10:21:54.140Z,10.20
2019-01-11T10:24:21.336Z,8.43
2019-01-11T10:26:48.507Z,8.67
2019-01-11T10:29:15.689Z,8.63
2019-01-11T10:31:42.960Z,8.13
2019-01-11T10:34:10.159Z,8.80
2019-01-11T10:36:37.398Z,9.20
2019-01-11T10:39:06.487Z,9.10
2019-01-11T10:41:33.941Z,10.03
2019-01-11T10:44:01.119Z,9.37
2019-01-11T10:46:32.625Z,9.53
2019-01-11T10:48:59.811Z,10.23
2019-01-11T10:51:28.204Z,9.67
2019-01-11T10:53:55.762Z,9.60
2019-01-11T10:56:22.982Z,10.47
2019-01-11T10:58:50.192Z,9.60
2019-01-11T11:01:17.375Z,10.17
2019-01-11T11:03:44.545Z,8.73
2019-01-11T11:06:11.773Z,8.10
2019-01-11T11:08:39.022Z,8.23
2019-01-11T11:11:06.181Z,10.13
2019-01-11T11:13:33.370Z,7.73
2019-01-11T11:16:00.831Z,8.63
2019-01-11T11:18:28.137Z,8.33
2019-01-11T11:20:55.338Z,8.93
2019-01-11T11:23:22.528Z,7.47
2019-01-11T11:25:49.726Z,7.30
2019-01-11T11:28:16.909Z,7.00
2019-01-11T11:30:44.086Z,7.60
2019-01-11T11:33:12.169Z,7.03
2019-01-11T11:35:39.340Z,6.57
2019-01-11T11:38:06.524Z,7.07
2019-01-11T11:40:33.791Z,7.07
2019-01-11T11:43:00.965Z,7.63
2019-01-11T11:45:28.150Z,6.33
2019-01-11T11:47:55.362Z,6.03
2019-01-11T11:50:22.614Z,6.33
2019-01-11T11:52:49.803Z,6.50
2019-01-11T11:55:16.985Z,6.80
2019-01-11T11:57:44.179Z,7.13
2019-01-11T12:00:12.997Z,6.63
2019-01-11T12:02:40.257Z,6.57
2019-01-11T12:05:07.432Z,6.43
2019-01-11T12:07:34.613Z,6.60
2019-01-11T12:10:01.798Z,6.57
2019-01-11T12:12:28.978Z,6.90
2019-01-11T12:14:56.143Z,5.80
2019-01-11T12:17:23.310Z,6.10
2019-01-11T12:19:50.511Z,6.37
2019-01-11T12:22:17.684Z,6.20
2019-01-11T12:24:44.850Z,6.00
2019-01-11T12:27:12.042Z,5.50
2019-01-11T12:29:39.219Z,5.40
2019-01-11T12:32:06.414Z,5.87
2019-01-11T12:34:33.589Z,6.33
2019-01-11T12:37:00.770Z,5.77
2019-01-11T12:39:27.953Z,5.53
2019-01-11T12:41:55.145Z,6.10
2019-01-11T12:44:22.326Z,6.47
2019-01-11T12:46:49.490Z,5.23
2019-01-11T12:49:16.698Z,7.30
2019-01-11T12:51:43.933Z,5.83
2019-01-11T12:54:11.099Z,5.77
2019-01-11T12:56:38.274Z,5.93
2019-01-11T12:59:05.442Z,5.63
2019-01-11T13:01:32.628Z,6.50
2019-01-11T13:03:59.845Z,6.47
2019-01-11T13:06:27.111Z,6.77
2019-01-11T13:08:54.347Z,5.57
2019-01-11T13:11:21.550Z,5.77
2019-01-11T13:13:48.715Z,6.27
2019-01-11T13:16:15.898Z,6.77
2019-01-11T13:18:43.067Z,6.43
2019-01-11T13:21:10.277Z,6.73
2019-01-11T13:23:37.506Z,7.10
2019-01-11T13:26:04.746Z,6.30
2019-01-11T13:28:31.935Z,7.07
2019-01-11T13:30:59.109Z,8.23
2019-01-11T13:33:26.308Z,7.23
2019-01-11T13:35:53.489Z,6.37
2019-01-11T13:38:20.670Z,6.67
2019-01-11T13:40:49.492Z,6.20
2019-01-11T13:43:20.834Z,6.43
2019-01-11T13:45:48.025Z,6.57
2019-01-11T13:48:15.189Z,5.90
2019-01-11T13:50:42.389Z,5.13
2019-01-11T13:53:09.562Z,4.77
2019-01-11T13:55:36.740Z,5.93
2019-01-11T13:58:05.644Z,6.37
2019-01-11T14:00:32.839Z,5.03
2019-01-11T14:03:00.104Z,5.23
2019-01-11T14:05:27.347Z,5.63
2019-01-11T14:07:54.533Z,5.63
2019-01-11T14:10:21.702Z,4.90
2019-01-11T14:12:48.891Z,5.90
2019-01-11T14:15:16.065Z,4.87
2019-01-11T14:17:43.249Z,5.03
2019-01-11T14:20:10.904Z,4.83
2019-01-11T14:22:39.712Z,4.23
2019-01-11T14:25:08.334Z,4.00
2019-01-11T14:27:35.513Z,4.53
2019-01-11T14:30:03.284Z,4.80
2019-01-11T14:32:31.701Z,4.77
2019-01-11T14:34:58.880Z,4.33
2019-01-11T14:37:32.165Z,4.27
2019-01-11T14:39:54.971Z,4.30
2019-01-11T14:42:22.158Z,4.20
2019-01-11T14:44:51.699Z,4.00
2019-01-11T14:47:18.878Z,4.17
2019-01-11T14:49:46.259Z,3.80
2019-01-11T14:52:20.359Z,4.27
2019-01-11T14:54:42.386Z,4.07
2019-01-11T14:57:09.570Z,3.80
2019-01-11T14:59:36.765Z,5.03
2019-01-11T15:02:04.266Z,4.73
2019-01-11T15:04:31.444Z,4.73
2019-01-11T15:06:58.626Z,4.43
2019-01-11T15:09:27.974Z,5.10
2019-01-11T15:11:55.140Z,4.13
2019-01-11T15:14:22.332Z,4.33
2019-01-11T15:16:49.493Z,4.70
2019-01-11T15:19:16.690Z,4.73
2019-01-11T15:21:43.864Z,4.67
2019-01-11T15:24:11.139Z,4.80
2019-01-11T15:26:38.321Z,5.53
2019-01-11T15:29:05.541Z,4.80
2019-01-11T15:31:32.759Z,4.67
2019-01-11T15:33:59.951Z,5.47
2019-01-11T15:36:27.214Z,5.40
2019-01-11T15:38:54.468Z,5.57
2019-01-11T15:41:24.758Z,5.50
2019-01-11T15:43:51.946Z,5.30
2019-01-11T15:46:25.690Z,5.87
2019-01-11T15:49:16.307Z,6.13
2019-01-11T15:51:43.486Z,6.30
2019-01-11T15:54:10.667Z,6.20
2019-01-11T15:56:37.846Z,5.90
2019-01-11T15:59:05.042Z,6.50
2019-01-11T16:01:32.228Z,6.33
2019-01-11T16:04:00.278Z,6.10
2019-01-11T16:06:32.108Z,5.60
2019-01-11T16:09:18.602Z,5.57
2019-01-11T16:11:50.044Z,4.80
2019-01-11T16:14:35.217Z,5.40
2019-01-11T16:17:04.214Z,4.83
2019-01-11T16:19:31.412Z,4.63
2019-01-11T16:21:58.966Z,4.27
2019-01-11T16:24:26.146Z,4.83
2019-01-11T16:26:54.956Z,4.70
2019-01-11T16:29:22.206Z,4.63
2019-01-11T16:31:49.389Z,5.73
2019-01-11T16:34:16.550Z,5.43
2019-01-11T16:36:43.733Z,5.63
2019-01-11T16:39:12.564Z,6.17
2019-01-11T16:41:39.730Z,6.17
2019-01-11T16:44:06.930Z,6.10
2019-01-11T16:46:34.099Z,6.30
2019-01-11T16:49:01.269Z,6.17
2019-01-11T16:51:28.446Z,5.87
2019-01-11T16:53:55.685Z,6.80
2019-01-11T16:56:23.754Z,7.73
2019-01-11T16:58:53.478Z,6.77
2019-01-11T17:01:20.664Z,7.20
2019-01-11T17:03:49.473Z,7.27
2019-01-11T17:06:16.661Z,7.63
2019-01-11T17:08:46.824Z,7.70
2019-01-11T17:11:14.010Z,7.43
2019-01-11T17:13:41.198Z,7.20
2019-01-11T17:16:08.392Z,9.10
2019-01-11T17:18:35.564Z,8.07
2019-01-11T17:21:02.750Z,7.97
2019-01-11T17:23:29.942Z,7.50
2019-01-11T17:25:59.788Z,7.40
2019-01-11T17:28:26.987Z,8.33
2019-01-11T17:30:54.166Z,7.60
2019-01-11T17:33:21.347Z,7.63
2019-01-11T17:35:48.591Z,7.37
2019-01-11T17:38:15.919Z,7.00
2019-01-11T17:40:43.177Z,7.40
2019-01-11T17:43:12.363Z,7.63
2019-01-11T17:45:40.662Z,7.73
2019-01-11T17:48:07.937Z,7.67
2019-01-11T17:50:40.879Z,9.20
2019-01-11T17:53:08.126Z,7.33
2019-01-11T17:55:35.331Z,8.40
2019-01-11T17:58:04.151Z,8.07
2019-01-11T18:00:31.354Z,7.90
2019-01-11T18:02:59.807Z,7.20
2019-01-11T18:05:27.025Z,7.70
2019-01-11T18:07:54.235Z,6.73
2019-01-11T18:10:24.200Z,6.83
2019-01-11T18:12:54.071Z,6.40
2019-01-11T18:15:21.356Z,7.67
2019-01-11T18:17:53.611Z,6.77
2019-01-11T18:20:22.403Z,6.73
2019-01-11T18:22:49.637Z,7.30
2019-01-11T18:25:18.517Z,6.37
2019-01-11T18:27:45.711Z,6.17
2019-01-11T18:30:17.489Z,6.00
2019-01-11T18:32:44.766Z,5.03
2019-01-11T18:35:11.953Z,5.17
2019-01-11T18:37:55.902Z,4.43
2019-01-11T18:40:15.965Z,4.43
2019-01-11T18:42:43.156Z,4.83
2019-01-11T18:45:13.778Z,4.53
2019-01-11T18:47:41.009Z,4.60
2019-01-11T18:50:09.831Z,4.83
2019-01-11T18:52:37.025Z,4.47
2019-01-11T18:55:05.589Z,3.57
2019-01-11T18:57:32.795Z,4.27
2019-01-11T19:00:00.094Z,3.80
2019-01-11T19:02:27.313Z,3.50
2019-01-11T19:04:56.163Z,3.53
2019-01-11T19:07:25.670Z,4.27
2019-01-11T19:09:52.351Z,3.40
2019-01-11T19:12:19.562Z,4.03
2019-01-11T19:14:46.803Z,5.73
2019-01-11T19:17:15.647Z,3.73
2019-01-11T19:19:42.833Z,3.50
2019-01-11T19:22:10.010Z,3.30
2019-01-11T19:24:37.218Z,3.37
2019-01-11T19:27:04.387Z,3.63
2019-01-11T19:29:31.598Z,4.47
2019-01-11T19:32:00.462Z,3.37
2019-01-11T19:34:27.619Z,3.23
2019-01-11T19:36:57.609Z,3.03
2019-01-11T19:39:24.861Z,3.10
2019-01-11T19:41:52.079Z,2.70
2019-01-11T19:44:19.257Z,3.47
2019-01-11T19:46:46.430Z,3.67
2019-01-11T19:49:13.630Z,3.57
2019-01-11T19:51:40.908Z,3.40
2019-01-11T19:54:08.151Z,3.17
2019-01-11T19:56:35.390Z,3.10
2019-01-11T19:59:02.618Z,3.27
2019-01-11T20:01:31.562Z,3.33
2019-01-11T20:03:58.930Z,3.30
2019-01-11T20:06:26.128Z,4.57
2019-01-11T20:08:53.381Z,4.37
2019-01-11T20:11:20.626Z,4.03
2019-01-11T20:13:47.875Z,3.87
2019-01-11T20:16:16.942Z,3.20
2019-01-11T20:18:44.170Z,3.70
2019-01-11T20:21:11.349Z,3.40
2019-01-11T20:23:38.528Z,4.00
2019-01-11T20:26:05.743Z,2.80
2019-01-11T20:28:32.956Z,3.23
2019-01-11T20:31:00.214Z,3.53
2019-01-11T20:33:27.501Z,3.70
2019-01-11T20:35:54.749Z,2.87
2019-01-11T20:38:21.919Z,5.53
2019-01-11T20:40:49.144Z,4.10
2019-01-11T20:43:16.320Z,4.30
2019-01-11T20:45:44.814Z,6.67
2019-01-11T20:48:12.855Z,3.60
2019-01-11T20:50:40.126Z,3.33
2019-01-11T20:53:07.407Z,3.23
2019-01-11T20:55:34.597Z,4.00
2019-01-11T20:58:01.823Z,3.30
2019-01-11T21:00:29.634Z,3.40
2019-01-11T21:02:56.836Z,3.63
2019-01-11T21:05:24.025Z,4.13
2019-01-11T21:07:51.204Z,3.83
2019-01-11T21:10:20.308Z,4.10
2019-01-11T21:12:47.561Z,4.10
2019-01-11T21:15:17.015Z,3.77
2019-01-11T21:17:44.202Z,4.10
2019-01-11T21:20:12.853Z,4.93
2019-01-11T21:22:40.106Z,3.57
2019-01-11T21:25:08.675Z,4.80
2019-01-11T21:27:36.132Z,4.27
2019-01-11T21:30:05.047Z,5.00
2019-01-11T21:32:32.253Z,3.70
2019-01-11T21:34:59.490Z,5.17
2019-01-11T21:37:26.660Z,4.33
2019-01-11T21:39:53.870Z,3.70
2019-01-11T21:42:21.069Z,4.63
2019-01-11T21:44:48.256Z,5.17
2019-01-11T21:47:15.496Z,4.43
2019-01-11T21:49:42.716Z,5.43
2019-01-11T21:52:10.032Z,5.10
2019-01-11T21:54:37.296Z,4.47
2019-01-11T21:57:04.752Z,4.43
2019-01-11T21:59:32.710Z,4.87
2019-01-11T22:01:59.978Z,5.13
2019-01-11T22:04:27.251Z,4.53
2019-01-11T22:06:54.439Z,5.53
2019-01-11T22:09:21.618Z,6.03
2019-01-11T22:11:48.838Z,5.23
2019-01-11T22:14:16.101Z,5.93
2019-01-11T22:16:43.287Z,4.93
2019-01-11T22:19:10.478Z,6.10
2019-01-11T22:21:37.666Z,4.93
2019-01-11T22:24:06.268Z,5.03
2019-01-11T22:26:33.513Z,5.30
2019-01-11T22:29:00.705Z,6.87
2019-01-11T22:31:27.887Z,5.57
2019-01-11T22:33:55.060Z,5.50
2019-01-11T22:36:22.252Z,5.83
2019-01-11T22:38:49.442Z,5.10
2019-01-11T22:41:17.901Z,5.13
2019-01-11T22:43:45.254Z,5.80
2019-01-11T22:46:12.516Z,7.27
2019-01-11T22:48:39.702Z,5.47
2019-01-11T22:51:06.901Z,5.37
2019-01-11T22:53:34.151Z,5.87
2019-01-11T22:56:01.319Z,5.73
2019-01-11T22:58:28.502Z,5.97
2019-01-11T23:00:58.088Z,5.67
2019-01-11T23:03:29.565Z,5.90
2019-01-11T23:06:01.284Z,5.33
2019-01-11T23:08:35.882Z,5.80
2019-01-11T23:11:15.142Z,5.73
2019-01-11T23:13:43.950Z,7.80
2019-01-11T23:16:12.774Z,5.70
2019-01-11T23:18:40.013Z,5.77
2019-01-11T23:21:07.239Z,6.77
2019-01-11T23:23:34.417Z,7.13
2019-01-11T23:26:01.598Z,7.60
2019-01-11T23:28:28.811Z,7.30
2019-01-11T23:30:56.009Z,5.80
2019-01-11T23:33:23.255Z,7.23
2019-01-11T23:35:50.516Z,6.63
2019-01-11T23:38:17.704Z,7.40
2019-01-11T23:40:44.870Z,5.70
2019-01-11T23:43:12.074Z,6.07
2019-01-11T23:45:39.250Z,7.00
2019-01-11T23:48:06.457Z,6.93
2019-01-11T23:50:33.646Z,6.37
2019-01-11T23:53:00.825Z,6.53
2019-01-11T23:55:28.017Z,8.40
2019-01-11T23:57:55.193Z,7.17
